createdAt,value
2023-01-08T07:11:38.214Z,100455.94
2023-01-08T07:16:40.334Z,100442.09
2023-01-08T07:21:42.415Z,100445.41
2023-01-08T07:26:44.517Z,100446.75
2023-01-08T07:31:46.649Z,100450.66
2023-01-08T07:36:48.803Z,100455.97
2023-01-08T07:41:51.124Z,100450.72
2023-01-08T07:46:53.320Z,100443.22
2023-01-08T07:51:55.483Z,100437.84
2023-01-08T07:56:57.586Z,100433.72
2023-01-08T08:01:59.736Z,100436.13
2023-01-08T08:07:01.933Z,100453.53
2023-01-08T08:12:04.327Z,100438.75
2023-01-08T08:17:06.472Z,100428.62
2023-01-08T08:22:08.503Z,100411.38
2023-01-08T08:27:10.534Z,100407.84
2023-01-08T08:32:12.645Z,100424.25
2023-01-08T08:37:14.697Z,100391.06
2023-01-08T08:42:16.768Z,100395.69
2023-01-08T08:47:18.849Z,100387.00
2023-01-08T08:52:20.931Z,100385.72
2023-01-08T08:57:26.951Z,100381.22
2023-01-08T09:02:29.267Z,100400.78
2023-01-08T09:07:31.491Z,100387.00
2023-01-08T09:12:33.607Z,100381.47
2023-01-08T09:17:36.911Z,100396.13
2023-01-08T09:22:38.997Z,100390.28
2023-01-08T09:27:41.081Z,100382.06
2023-01-08T09:32:43.163Z,100373.53
2023-01-08T09:37:45.257Z,100380.63
2023-01-08T09:42:55.119Z,100376.00
2023-01-08T09:48:03.806Z,100363.25
2023-01-08T09:53:10.400Z,100362.72
2023-01-08T09:58:29.964Z,100349.28
2023-01-08T10:03:41.482Z,100321.63
2023-01-08T10:13:57.175Z,100307.25
2023-01-08T10:19:00.097Z,100302.06
2023-01-08T10:24:02.236Z,100289.28
2023-01-08T10:29:10.191Z,100275.78
2023-01-08T10:34:22.168Z,100277.19
2023-01-08T10:39:28.529Z,100258.31
2023-01-08T10:44:32.744Z,100251.81
2023-01-08T10:49:42.454Z,100259.22
2023-01-08T10:54:44.587Z,100242.19
2023-01-08T10:59:46.707Z,100243.13
2023-01-08T11:04:52.056Z,100238.09
2023-01-08T11:09:55.288Z,100226.22
2023-01-08T11:14:57.600Z,100213.28
2023-01-08T11:20:30.686Z,100210.31
2023-01-08T11:25:35.254Z,100206.03
2023-01-08T11:30:39.345Z,100189.97
2023-01-08T11:35:48.688Z,100178.56
2023-01-08T11:40:52.574Z,100169.94
2023-01-08T11:46:19.432Z,100164.69
2023-01-08T11:51:40.558Z,100154.91
2023-01-08T11:57:04.996Z,100156.47
2023-01-08T12:02:21.056Z,100133.84
2023-01-08T12:07:33.293Z,100129.06
2023-01-08T12:12:38.281Z,100123.41
2023-01-08T12:17:48.537Z,100127.50
2023-01-08T12:23:11.617Z,100115.94
2023-01-08T12:28:25.836Z,100122.59
2023-01-08T12:33:44.027Z,100131.13
2023-01-08T12:38:57.668Z,100118.41
2023-01-08T12:44:03.226Z,100130.41
2023-01-08T12:49:08.036Z,100106.28
2023-01-08T12:54:31.903Z,100110.72
2023-01-08T12:59:59.333Z,100109.66
2023-01-08T13:05:20.461Z,100091.59
2023-01-08T13:10:36.315Z,100097.84
2023-01-08T13:15:38.756Z,100093.84
2023-01-08T13:20:41.068Z,100103.59
2023-01-08T13:25:56.143Z,100090.41
2023-01-08T13:31:28.746Z,100090.63
2023-01-08T13:36:32.040Z,100098.25
2023-01-08T13:41:37.388Z,100074.56
2023-01-08T13:46:41.036Z,100086.53
2023-01-08T13:51:45.711Z,100072.38
2023-01-08T13:56:54.061Z,100071.19
2023-01-08T14:01:57.170Z,100083.09
2023-01-08T14:07:25.878Z,100066.09
2023-01-08T14:12:28.150Z,100091.66
2023-01-08T14:17:32.528Z,100093.03
2023-01-08T14:22:36.019Z,100076.50
2023-01-08T14:27:38.078Z,100085.13
2023-01-08T14:32:43.766Z,100074.63
2023-01-08T14:37:45.963Z,100069.00
2023-01-08T14:42:53.303Z,100087.00
2023-01-08T14:48:08.053Z,100080.91
2023-01-08T14:53:20.273Z,100083.16
2023-01-08T14:58:25.539Z,100077.69
2023-01-08T15:03:39.996Z,100066.06
2023-01-08T15:08:44.402Z,100070.31
2023-01-08T15:13:48.673Z,100058.13
2023-01-08T15:19:17.828Z,100057.47
2023-01-08T15:24:29.464Z,100064.28
2023-01-08T15:29:37.026Z,100055.88
2023-01-08T15:34:39.172Z,100052.50
2023-01-08T15:39:42.074Z,100060.53
2023-01-08T15:44:44.165Z,100036.38
2023-01-08T15:49:46.223Z,100047.78
2023-01-08T15:54:48.847Z,100040.06
2023-01-08T15:59:51.574Z,100024.13
2023-01-08T16:04:56.152Z,100015.69
2023-01-08T16:09:58.387Z,100035.25
2023-01-08T16:15:00.524Z,100037.16
2023-01-08T16:20:04.203Z,100018.03
2023-01-08T16:25:07.363Z,100028.00
2023-01-08T16:30:14.630Z,100028.00
2023-01-08T16:35:16.832Z,100020.47
2023-01-08T16:40:19.286Z,100006.78
2023-01-08T16:45:21.384Z,100003.37
2023-01-08T16:50:23.420Z,100010.28
2023-01-08T16:55:25.717Z,100015.41
2023-01-08T17:00:27.835Z,100017.88
2023-01-08T17:05:30.013Z,100000.41
2023-01-08T17:10:32.364Z,99981.91
2023-01-08T17:15:34.506Z,99998.28
2023-01-08T17:20:36.835Z,99981.50
2023-01-08T17:25:40.936Z,99994.16
2023-01-08T17:30:43.026Z,99994.63
2023-01-08T17:35:45.242Z,99989.69
2023-01-08T17:40:47.314Z,99979.41
2023-01-08T17:45:49.409Z,99969.41
2023-01-08T17:50:51.545Z,99966.84
2023-01-08T17:55:54.310Z,99975.06
2023-01-08T18:00:56.465Z,99963.59
2023-01-08T18:05:58.584Z,99976.34
2023-01-08T18:11:02.722Z,99962.41
2023-01-08T18:16:07.923Z,99968.50
2023-01-08T18:21:10.176Z,99974.22
2023-01-08T18:26:12.671Z,99968.81
2023-01-08T18:31:15.771Z,99963.09
2023-01-08T18:36:18.853Z,99970.34
2023-01-08T18:41:39.486Z,99974.91
2023-01-08T18:46:41.686Z,99974.81
2023-01-08T18:51:43.891Z,99958.88
2023-01-08T18:56:47.164Z,99962.97
2023-01-08T19:01:49.438Z,99969.50
2023-01-08T19:06:51.604Z,99976.78
2023-01-08T19:11:53.753Z,99951.59
2023-01-08T19:16:56.533Z,99949.47
2023-01-08T19:21:58.676Z,99964.69
2023-01-08T19:27:00.788Z,99951.78
2023-01-08T19:32:02.853Z,99960.88
2023-01-08T19:37:05.112Z,99949.66
2023-01-08T19:42:25.768Z,99948.59
2023-01-08T19:47:28.115Z,99949.75
2023-01-08T19:52:30.237Z,99954.09
2023-01-08T19:57:32.375Z,99945.53
2023-01-08T20:02:34.530Z,99944.69
2023-01-08T20:07:36.869Z,99932.50
2023-01-08T20:12:39.673Z,99930.88
2023-01-08T20:17:42.639Z,99936.03
2023-01-08T20:22:44.893Z,99917.13
2023-01-08T20:27:46.985Z,99912.63
2023-01-08T20:37:56.010Z,99916.50
2023-01-08T20:42:58.069Z,99902.81
2023-01-08T20:48:00.140Z,99898.38
2023-01-08T20:53:02.237Z,99908.91
2023-01-08T20:58:04.436Z,99897.09
2023-01-08T21:03:06.620Z,99894.19
2023-01-08T21:08:09.014Z,99882.25
2023-01-08T21:13:11.539Z,99891.97
2023-01-08T21:18:13.683Z,99895.19
2023-01-08T21:23:15.763Z,99888.00
2023-01-08T21:28:38.810Z,99871.56
2023-01-08T21:33:41.478Z,99878.34
2023-01-08T21:38:44.568Z,99869.09
